sensor_id;sensor_type;location;lat;lon;timestamp;pressure;altitude;pressure_sealevel;temperature;humidity
72024;BME280;59889;50.700;5.440;2023-11-18T00:02:21;100812.37;;;20.88;35.53
72024;BME280;59889;50.700;5.440;2023-11-18T00:04:46;100811.62;;;20.92;35.48
72024;BME280;59889;50.700;5.440;2023-11-18T00:07:11;100816.09;;;21.10;35.53
72024;BME280;59889;50.700;5.440;2023-11-18T00:09:36;100816.59;;;21.30;35.29
72024;BME280;59889;50.700;5.440;2023-11-18T00:12:02;100817.75;;;21.19;35.43
72024;BME280;59889;50.700;5.440;2023-11-18T00:14:27;100819.69;;;21.13;35.49
72024;BME280;59889;50.700;5.440;2023-11-18T00:16:52;100817.32;;;21.13;35.50
72024;BME280;59889;50.700;5.440;2023-11-18T00:19:17;100812.78;;;21.05;35.58
72024;BME280;59889;50.700;5.440;2023-11-18T00:21:42;100808.49;;;21.10;35.51
72024;BME280;59889;50.700;5.440;2023-11-18T00:24:07;100809.87;;;21.15;35.46
72024;BME280;59889;50.700;5.440;2023-11-18T00:26:32;100805.23;;;20.83;35.55
72024;BME280;59889;50.700;5.440;2023-11-18T00:28:57;100802.70;;;21.14;35.46
72024;BME280;59889;50.700;5.440;2023-11-18T00:31:22;100799.43;;;21.06;35.55
72024;BME280;59889;50.700;5.440;2023-11-18T00:33:47;100802.32;;;20.99;35.33
72024;BME280;59889;50.700;5.440;2023-11-18T00:36:12;100800.75;;;20.89;35.46
72024;BME280;59889;50.700;5.440;2023-11-18T00:38:37;100800.03;;;21.22;35.35
72024;BME280;59889;50.700;5.440;2023-11-18T00:41:02;100795.84;;;21.00;35.63
72024;BME280;59889;50.700;5.440;2023-11-18T00:43:27;100790.79;;;20.84;35.53
72024;BME280;59889;50.700;5.440;2023-11-18T00:45:52;100786.19;;;21.15;35.45
72024;BME280;59889;50.700;5.440;2023-11-18T00:48:17;100777.88;;;21.04;35.57
72024;BME280;59889;50.700;5.440;2023-11-18T00:50:42;100784.62;;;21.21;35.36
72024;BME280;59889;50.700;5.440;2023-11-18T00:53:07;100791.68;;;21.21;35.35
72024;BME280;59889;50.700;5.440;2023-11-18T00:55:32;100791.74;;;21.09;35.49
72024;BME280;59889;50.700;5.440;2023-11-18T00:57:57;100794.26;;;21.24;35.33
72024;BME280;59889;50.700;5.440;2023-11-18T01:00:22;100792.75;;;21.25;35.33
72024;BME280;59889;50.700;5.440;2023-11-18T01:02:48;100791.84;;;21.23;35.33
72024;BME280;59889;50.700;5.440;2023-11-18T01:05:12;100791.76;;;21.20;35.33
72024;BME280;59889;50.700;5.440;2023-11-18T01:07:37;100790.84;;;21.09;35.50
72024;BME280;59889;50.700;5.440;2023-11-18T01:10:03;100790.73;;;21.15;35.44
72024;BME280;59889;50.700;5.440;2023-11-18T01:12:27;100791.52;;;21.06;35.53
72024;BME280;59889;50.700;5.440;2023-11-18T01:14:52;100789.68;;;21.12;35.44
72024;BME280;59889;50.700;5.440;2023-11-18T01:17:17;100790.42;;;20.84;35.53
72024;BME280;59889;50.700;5.440;2023-11-18T01:19:43;100792.76;;;21.10;35.50
72024;BME280;59889;50.700;5.440;2023-11-18T01:22:08;100799.71;;;21.15;35.44
72024;BME280;59889;50.700;5.440;2023-11-18T01:24:33;100804.34;;;21.04;35.28
72024;BME280;59889;50.700;5.440;2023-11-18T01:26:58;100809.52;;;20.88;35.48
72024;BME280;59889;50.700;5.440;2023-11-18T01:29:23;100813.22;;;20.94;35.40
72024;BME280;59889;50.700;5.440;2023-11-18T01:31:48;100814.85;;;21.09;35.50
72024;BME280;59889;50.700;5.440;2023-11-18T01:34:13;100814.79;;;21.10;35.50
72024;BME280;59889;50.700;5.440;2023-11-18T01:36:38;100811.54;;;20.96;35.40
72024;BME280;59889;50.700;5.440;2023-11-18T01:39:03;100811.43;;;21.19;35.39
72024;BME280;59889;50.700;5.440;2023-11-18T01:41:28;100812.30;;;21.27;35.32
72024;BME280;59889;50.700;5.440;2023-11-18T01:43:53;100808.88;;;21.01;35.60
72024;BME280;59889;50.700;5.440;2023-11-18T01:46:18;100812.71;;;20.98;35.66
72024;BME280;59889;50.700;5.440;2023-11-18T01:48:43;100816.94;;;21.17;35.44
72024;BME280;59889;50.700;5.440;2023-11-18T01:51:08;100815.15;;;21.01;35.62
72024;BME280;59889;50.700;5.440;2023-11-18T01:53:34;100811.52;;;21.18;35.37
72024;BME280;59889;50.700;5.440;2023-11-18T01:55:58;100808.21;;;21.04;35.57
72024;BME280;59889;50.700;5.440;2023-11-18T01:58:23;100810.06;;;20.91;35.45
72024;BME280;59889;50.700;5.440;2023-11-18T02:00:49;100804.55;;;20.82;35.55
72024;BME280;59889;50.700;5.440;2023-11-18T02:03:13;100797.46;;;21.02;35.59
72024;BME280;59889;50.700;5.440;2023-11-18T02:05:38;100792.12;;;21.10;35.49
72024;BME280;59889;50.700;5.440;2023-11-18T02:08:04;100798.51;;;20.98;35.37
72024;BME280;59889;50.700;5.440;2023-11-18T02:10:28;100799.35;;;21.13;35.47
72024;BME280;59889;50.700;5.440;2023-11-18T02:13:00;100799.15;;;21.01;35.61
72024;BME280;59889;50.700;5.440;2023-11-18T02:15:20;100800.24;;;20.99;35.62
72024;BME280;59889;50.700;5.440;2023-11-18T02:17:45;100802.68;;;21.03;35.61
72024;BME280;59889;50.700;5.440;2023-11-18T02:20:10;100801.62;;;20.86;35.51
72024;BME280;59889;50.700;5.440;2023-11-18T02:22:34;100799.52;;;21.10;35.52
72024;BME280;59889;50.700;5.440;2023-11-18T02:25:01;100792.27;;;20.82;35.53
72024;BME280;59889;50.700;5.440;2023-11-18T02:27:24;100790.34;;;20.82;35.54
72024;BME280;59889;50.700;5.440;2023-11-18T02:29:49;100794.42;;;21.06;35.55
72024;BME280;59889;50.700;5.440;2023-11-18T02:32:20;100795.72;;;20.98;35.65
72024;BME280;59889;50.700;5.440;2023-11-18T02:34:41;100789.74;;;21.01;35.61
72024;BME280;59889;50.700;5.440;2023-11-18T02:37:05;100790.62;;;21.01;35.61
72024;BME280;59889;50.700;5.440;2023-11-18T02:39:32;100792.78;;;21.03;35.60
72024;BME280;59889;50.700;5.440;2023-11-18T02:41:55;100794.48;;;21.05;35.55
72024;BME280;59889;50.700;5.440;2023-11-18T02:44:20;100792.96;;;21.03;35.57
72024;BME280;59889;50.700;5.440;2023-11-18T02:46:44;100798.62;;;21.07;35.51
72024;BME280;59889;50.700;5.440;2023-11-18T02:49:09;100799.62;;;20.76;35.62
72024;BME280;59889;50.700;5.440;2023-11-18T02:51:34;100798.10;;;21.37;35.46
72024;BME280;59889;50.700;5.440;2023-11-18T02:53:59;100790.61;;;20.85;35.50
72024;BME280;59889;50.700;5.440;2023-11-18T02:56:24;100778.18;;;20.93;35.42
72024;BME280;59889;50.700;5.440;2023-11-18T02:58:49;100773.97;;;21.13;35.49
72024;BME280;59889;50.700;5.440;2023-11-18T03:01:14;100772.92;;;21.14;35.50
72024;BME280;59889;50.700;5.440;2023-11-18T03:03:39;100768.62;;;20.77;35.61
72024;BME280;59889;50.700;5.440;2023-11-18T03:06:05;100767.24;;;21.05;35.57
72024;BME280;59889;50.700;5.440;2023-11-18T03:08:30;100771.47;;;20.99;35.66
72024;BME280;59889;50.700;5.440;2023-11-18T03:10:54;100772.14;;;20.96;35.70
72024;BME280;59889;50.700;5.440;2023-11-18T03:13:20;100768.33;;;21.01;35.61
72024;BME280;59889;50.700;5.440;2023-11-18T03:15:45;100761.30;;;20.75;35.64
72024;BME280;59889;50.700;5.440;2023-11-18T03:18:10;100751.08;;;20.88;35.47
72024;BME280;59889;50.700;5.440;2023-11-18T03:20:35;100741.43;;;21.02;35.60
72024;BME280;59889;50.700;5.440;2023-11-18T03:23:00;100735.91;;;20.80;35.57
72024;BME280;59889;50.700;5.440;2023-11-18T03:25:25;100729.19;;;20.98;35.65
72024;BME280;59889;50.700;5.440;2023-11-18T03:27:50;100723.11;;;21.11;35.51
72024;BME280;59889;50.700;5.440;2023-11-18T03:30:15;100725.41;;;20.81;35.57
72024;BME280;59889;50.700;5.440;2023-11-18T03:32:40;100729.82;;;21.17;35.43
72024;BME280;59889;50.700;5.440;2023-11-18T03:35:06;100727.07;;;21.02;35.59
72024;BME280;59889;50.700;5.440;2023-11-18T03:37:30;100723.18;;;21.06;35.54
72024;BME280;59889;50.700;5.440;2023-11-18T03:39:55;100731.92;;;21.07;35.54
72024;BME280;59889;50.700;5.440;2023-11-18T03:42:20;100740.62;;;21.11;35.51
72024;BME280;59889;50.700;5.440;2023-11-18T03:44:45;100745.10;;;21.04;35.59
72024;BME280;59889;50.700;5.440;2023-11-18T03:47:10;100737.54;;;21.17;35.47
72024;BME280;59889;50.700;5.440;2023-11-18T03:49:35;100736.69;;;21.02;35.61
72024;BME280;59889;50.700;5.440;2023-11-18T03:52:00;100741.20;;;20.83;35.54
72024;BME280;59889;50.700;5.440;2023-11-18T03:54:25;100741.47;;;21.01;35.62
72024;BME280;59889;50.700;5.440;2023-11-18T03:56:50;100739.51;;;20.77;35.64
72024;BME280;59889;50.700;5.440;2023-11-18T03:59:15;100738.11;;;20.82;35.56
72024;BME280;59889;50.700;5.440;2023-11-18T04:01:40;100736.12;;;20.99;35.64
72024;BME280;59889;50.700;5.440;2023-11-18T04:04:06;100734.11;;;20.99;35.65
72024;BME280;59889;50.700;5.440;2023-11-18T04:06:31;100731.19;;;21.02;35.64
72024;BME280;59889;50.700;5.440;2023-11-18T04:08:56;100730.65;;;21.14;35.50
72024;BME280;59889;50.700;5.440;2023-11-18T04:11:21;100730.93;;;21.00;35.63
72024;BME280;59889;50.700;5.440;2023-11-18T04:13:46;100732.28;;;21.11;35.52
72024;BME280;59889;50.700;5.440;2023-11-18T04:16:11;100720.87;;;21.02;35.61
72024;BME280;59889;50.700;5.440;2023-11-18T04:18:36;100718.43;;;20.95;35.70
72024;BME280;59889;50.700;5.440;2023-11-18T04:21:01;100711.03;;;20.77;35.63
72024;BME280;59889;50.700;5.440;2023-11-18T04:23:26;100706.28;;;20.84;35.54
72024;BME280;59889;50.700;5.440;2023-11-18T04:25:51;100706.17;;;21.04;35.58
72024;BME280;59889;50.700;5.440;2023-11-18T04:28:16;100698.43;;;20.81;35.58
72024;BME280;59889;50.700;5.440;2023-11-18T04:30:41;100697.84;;;21.01;35.62
72024;BME280;59889;50.700;5.440;2023-11-18T04:33:06;100694.57;;;20.89;35.79
72024;BME280;59889;50.700;5.440;2023-11-18T04:35:31;100694.78;;;20.95;35.72
72024;BME280;59889;50.700;5.440;2023-11-18T04:37:56;100690.47;;;21.14;35.47
72024;BME280;59889;50.700;5.440;2023-11-18T04:40:21;100683.80;;;20.71;35.72
72024;BME280;59889;50.700;5.440;2023-11-18T04:42:46;100674.14;;;21.04;35.58
72024;BME280;59889;50.700;5.440;2023-11-18T04:45:12;100668.17;;;20.78;35.60
72024;BME280;59889;50.700;5.440;2023-11-18T04:47:36;100665.06;;;20.79;35.60
72024;BME280;59889;50.700;5.440;2023-11-18T04:50:02;100663.69;;;20.70;35.72
72024;BME280;59889;50.700;5.440;2023-11-18T04:52:26;100668.28;;;20.97;35.69
72024;BME280;59889;50.700;5.440;2023-11-18T04:54:51;100671.42;;;20.78;35.61
72024;BME280;59889;50.700;5.440;2023-11-18T04:57:16;100667.28;;;21.08;35.54
72024;BME280;59889;50.700;5.440;2023-11-18T04:59:42;100664.74;;;21.06;35.58
72024;BME280;59889;50.700;5.440;2023-11-18T05:02:07;100664.05;;;21.11;35.48
72024;BME280;59889;50.700;5.440;2023-11-18T05:04:32;100662.05;;;20.97;35.68
72024;BME280;59889;50.700;5.440;2023-11-18T05:06:57;100664.30;;;20.98;35.68
72024;BME280;59889;50.700;5.440;2023-11-18T05:09:22;100670.03;;;20.75;35.65
72024;BME280;59889;50.700;5.440;2023-11-18T05:11:47;100661.93;;;20.75;35.65
72024;BME280;59889;50.700;5.440;2023-11-18T05:14:12;100657.10;;;20.92;35.75
72024;BME280;59889;50.700;5.440;2023-11-18T05:16:37;100651.75;;;21.03;35.61
72024;BME280;59889;50.700;5.440;2023-11-18T05:19:02;100645.81;;;21.00;35.64
72024;BME280;59889;50.700;5.440;2023-11-18T05:21:27;100642.50;;;21.08;35.54
72024;BME280;59889;50.700;5.440;2023-11-18T05:23:52;100636.10;;;21.04;35.57
72024;BME280;59889;50.700;5.440;2023-11-18T05:26:17;100623.24;;;21.04;35.61
72024;BME280;59889;50.700;5.440;2023-11-18T05:28:42;100618.71;;;20.80;35.58
72024;BME280;59889;50.700;5.440;2023-11-18T05:31:07;100621.69;;;21.14;35.49
72024;BME280;59889;50.700;5.440;2023-11-18T05:33:32;100623.07;;;20.73;35.66
72024;BME280;59889;50.700;5.440;2023-11-18T05:35:57;100625.07;;;20.97;35.69
72024;BME280;59889;50.700;5.440;2023-11-18T05:38:22;100630.15;;;21.00;35.66
72024;BME280;59889;50.700;5.440;2023-11-18T05:40:47;100632.37;;;21.20;35.69
72024;BME280;59889;50.700;5.440;2023-11-18T05:43:12;100627.67;;;20.98;35.66
72024;BME280;59889;50.700;5.440;2023-11-18T05:45:37;100620.19;;;21.26;35.58
72024;BME280;59889;50.700;5.440;2023-11-18T05:48:02;100616.08;;;21.00;35.63
72024;BME280;59889;50.700;5.440;2023-11-18T05:50:27;100608.66;;;21.12;35.50
72024;BME280;59889;50.700;5.440;2023-11-18T05:52:53;100600.96;;;20.92;35.73
72024;BME280;59889;50.700;5.440;2023-11-18T05:55:17;100592.35;;;20.96;35.69
72024;BME280;59889;50.700;5.440;2023-11-18T05:57:42;100589.46;;;20.82;35.58
72024;BME280;59889;50.700;5.440;2023-11-18T06:00:08;100585.20;;;21.03;35.65
72024;BME280;59889;50.700;5.440;2023-11-18T06:02:33;100583.86;;;20.99;35.62
72024;BME280;59889;50.700;5.440;2023-11-18T06:04:58;100589.73;;;20.71;35.69
72024;BME280;59889;50.700;5.440;2023-11-18T06:07:23;100593.81;;;20.85;35.48
72024;BME280;59889;50.700;5.440;2023-11-18T06:09:48;100593.34;;;21.01;35.61
72024;BME280;59889;50.700;5.440;2023-11-18T06:12:13;100589.26;;;20.92;35.73
72024;BME280;59889;50.700;5.440;2023-11-18T06:14:38;100585.10;;;20.88;35.80
72024;BME280;59889;50.700;5.440;2023-11-18T06:17:03;100584.59;;;20.82;35.57
72024;BME280;59889;50.700;5.440;2023-11-18T06:19:29;100576.80;;;21.05;35.54
72024;BME280;59889;50.700;5.440;2023-11-18T06:21:53;100567.84;;;20.69;35.70
72024;BME280;59889;50.700;5.440;2023-11-18T06:24:18;100556.44;;;20.73;35.65
72024;BME280;59889;50.700;5.440;2023-11-18T06:26:43;100554.67;;;20.87;35.77
72024;BME280;59889;50.700;5.440;2023-11-18T06:29:08;100559.41;;;20.66;35.73
72024;BME280;59889;50.700;5.440;2023-11-18T06:31:33;100571.49;;;20.91;35.73
72024;BME280;59889;50.700;5.440;2023-11-18T06:33:58;100574.98;;;20.93;35.73
72024;BME280;59889;50.700;5.440;2023-11-18T06:36:24;100567.67;;;21.00;35.62
72024;BME280;59889;50.700;5.440;2023-11-18T06:38:49;100564.29;;;21.03;35.57
72024;BME280;59889;50.700;5.440;2023-11-18T06:41:13;100565.15;;;20.74;35.92
72024;BME280;59889;50.700;5.440;2023-11-18T06:43:39;100571.70;;;20.98;36.09
72024;BME280;59889;50.700;5.440;2023-11-18T06:46:03;100568.81;;;20.98;35.89
72024;BME280;59889;50.700;5.440;2023-11-18T06:48:28;100572.90;;;20.97;35.60
72024;BME280;59889;50.700;5.440;2023-11-18T06:50:53;100580.03;;;21.01;35.61
72024;BME280;59889;50.700;5.440;2023-11-18T06:53:18;100588.72;;;20.36;35.65
72024;BME280;59889;50.700;5.440;2023-11-18T06:55:43;100585.65;;;20.53;35.53
72024;BME280;59889;50.700;5.440;2023-11-18T06:58:08;100577.60;;;20.63;35.30
72024;BME280;59889;50.700;5.440;2023-11-18T07:00:33;100581.07;;;20.49;35.44
72024;BME280;59889;50.700;5.440;2023-11-18T07:02:58;100573.97;;;20.76;35.20
72024;BME280;59889;50.700;5.440;2023-11-18T07:05:24;100562.33;;;20.48;35.20
72024;BME280;59889;50.700;5.440;2023-11-18T07:07:49;100560.63;;;20.67;35.06
72024;BME280;59889;50.700;5.440;2023-11-18T07:10:14;100569.81;;;20.65;35.05
72024;BME280;59889;50.700;5.440;2023-11-18T07:12:39;100573.33;;;20.63;34.99
72024;BME280;59889;50.700;5.440;2023-11-18T07:15:05;100576.08;;;20.37;34.89
72024;BME280;59889;50.700;5.440;2023-11-18T07:17:29;100576.88;;;20.28;34.96
72024;BME280;59889;50.700;5.440;2023-11-18T07:19:54;100577.79;;;20.03;34.87
72024;BME280;59889;50.700;5.440;2023-11-18T07:22:19;100582.77;;;20.29;34.75
72024;BME280;59889;50.700;5.440;2023-11-18T07:24:45;100586.15;;;20.38;34.60
72024;BME280;59889;50.700;5.440;2023-11-18T07:27:10;100584.78;;;20.25;34.65
72024;BME280;59889;50.700;5.440;2023-11-18T07:29:35;100585.24;;;20.20;34.60
72024;BME280;59889;50.700;5.440;2023-11-18T07:32:00;100577.57;;;20.30;34.40
72024;BME280;59889;50.700;5.440;2023-11-18T07:34:25;100573.74;;;20.23;34.43
72024;BME280;59889;50.700;5.440;2023-11-18T07:36:50;100574.29;;;20.25;34.38
72024;BME280;59889;50.700;5.440;2023-11-18T07:39:15;100573.37;;;20.50;34.33
72024;BME280;59889;50.700;5.440;2023-11-18T07:41:40;100573.37;;;20.48;34.26
72024;BME280;59889;50.700;5.440;2023-11-18T07:44:06;100573.69;;;20.52;34.14
72024;BME280;59889;50.700;5.440;2023-11-18T07:46:30;100575.01;;;20.41;34.23
72024;BME280;59889;50.700;5.440;2023-11-18T07:48:55;100581.95;;;20.23;34.09
72024;BME280;59889;50.700;5.440;2023-11-18T07:51:21;100584.77;;;20.39;34.14
72024;BME280;59889;50.700;5.440;2023-11-18T07:53:46;100578.56;;;20.44;34.01
72024;BME280;59889;50.700;5.440;2023-11-18T07:56:11;100584.02;;;20.21;34.02
72024;BME280;59889;50.700;5.440;2023-11-18T07:58:36;100586.91;;;20.37;33.79
72024;BME280;59889;50.700;5.440;2023-11-18T08:01:01;100587.64;;;20.26;33.82
72024;BME280;59889;50.700;5.440;2023-11-18T08:03:26;100582.09;;;20.12;33.89
72024;BME280;59889;50.700;5.440;2023-11-18T08:05:51;100585.10;;;20.63;33.83
72024;BME280;59889;50.700;5.440;2023-11-18T08:08:16;100590.44;;;20.22;33.76
72024;BME280;59889;50.700;5.440;2023-11-18T08:10:41;100590.26;;;20.28;33.86
72024;BME280;59889;50.700;5.440;2023-11-18T08:13:07;100585.84;;;20.65;34.39
72024;BME280;59889;50.700;5.440;2023-11-18T08:15:31;100583.35;;;20.15;34.67
72024;BME280;59889;50.700;5.440;2023-11-18T08:17:56;100580.73;;;20.21;34.73
72024;BME280;59889;50.700;5.440;2023-11-18T08:20:21;100572.73;;;20.18;34.86
72024;BME280;59889;50.700;5.440;2023-11-18T08:22:46;100566.03;;;20.42;34.98
72024;BME280;59889;50.700;5.440;2023-11-18T08:25:11;100564.61;;;20.13;35.12
72024;BME280;59889;50.700;5.440;2023-11-18T08:27:36;100561.09;;;20.25;35.00
72024;BME280;59889;50.700;5.440;2023-11-18T08:30:01;100555.00;;;20.49;35.11
72024;BME280;59889;50.700;5.440;2023-11-18T08:32:27;100556.59;;;20.61;35.17
72024;BME280;59889;50.700;5.440;2023-11-18T08:34:52;100560.69;;;20.31;35.28
72024;BME280;59889;50.700;5.440;2023-11-18T08:37:18;100564.78;;;20.28;35.46
72024;BME280;59889;50.700;5.440;2023-11-18T08:39:43;100565.29;;;20.21;35.61
72024;BME280;59889;50.700;5.440;2023-11-18T08:42:09;100566.27;;;20.37;35.54
72024;BME280;59889;50.700;5.440;2023-11-18T08:44:35;100564.15;;;20.28;35.68
72024;BME280;59889;50.700;5.440;2023-11-18T08:47:00;100553.53;;;20.39;35.61
72024;BME280;59889;50.700;5.440;2023-11-18T08:49:26;100544.23;;;20.41;35.66
72024;BME280;59889;50.700;5.440;2023-11-18T08:51:51;100537.87;;;20.36;35.85
72024;BME280;59889;50.700;5.440;2023-11-18T08:54:17;100534.21;;;20.64;35.85
72024;BME280;59889;50.700;5.440;2023-11-18T08:56:42;100529.03;;;20.47;35.79
72024;BME280;59889;50.700;5.440;2023-11-18T08:59:07;100523.97;;;20.48;35.70
72024;BME280;59889;50.700;5.440;2023-11-18T09:01:32;100524.68;;;20.56;35.93
72024;BME280;59889;50.700;5.440;2023-11-18T09:03:58;100523.76;;;20.27;36.07
72024;BME280;59889;50.700;5.440;2023-11-18T09:06:23;100528.41;;;20.62;35.92
72024;BME280;59889;50.700;5.440;2023-11-18T09:08:49;100526.20;;;20.37;35.88
72024;BME280;59889;50.700;5.440;2023-11-18T09:11:15;100523.96;;;20.37;35.82
72024;BME280;59889;50.700;5.440;2023-11-18T09:13:41;100523.24;;;20.66;35.84
72024;BME280;59889;50.700;5.440;2023-11-18T09:16:07;100524.29;;;20.35;36.01
72024;BME280;59889;50.700;5.440;2023-11-18T09:18:31;100527.35;;;20.61;35.97
72024;BME280;59889;50.700;5.440;2023-11-18T09:20:56;100535.99;;;20.50;35.82
72024;BME280;59889;50.700;5.440;2023-11-18T09:23:22;100536.46;;;20.40;35.94
72024;BME280;59889;50.700;5.440;2023-11-18T09:25:47;100539.56;;;20.31;36.08
72024;BME280;59889;50.700;5.440;2023-11-18T09:28:13;100535.22;;;20.54;35.82
72024;BME280;59889;50.700;5.440;2023-11-18T09:30:37;100529.37;;;20.73;36.19
72024;BME280;59889;50.700;5.440;2023-11-18T09:33:02;100531.36;;;20.31;36.13
72024;BME280;59889;50.700;5.440;2023-11-18T09:35:27;100526.66;;;20.39;36.05
72024;BME280;59889;50.700;5.440;2023-11-18T09:37:52;100508.69;;;20.53;35.85
72024;BME280;59889;50.700;5.440;2023-11-18T09:40:20;100500.78;;;20.73;35.92
72024;BME280;59889;50.700;5.440;2023-11-18T09:42:44;100503.83;;;20.92;35.99
72024;BME280;59889;50.700;5.440;2023-11-18T09:45:10;100505.94;;;20.79;36.20
72024;BME280;59889;50.700;5.440;2023-11-18T09:47:36;100501.83;;;20.35;36.14
72024;BME280;59889;50.700;5.440;2023-11-18T09:50:01;100492.25;;;20.26;36.27
72024;BME280;59889;50.700;5.440;2023-11-18T09:52:26;100486.79;;;20.44;36.34
72024;BME280;59889;50.700;5.440;2023-11-18T09:54:57;100481.51;;;20.60;36.44
72024;BME280;59889;50.700;5.440;2023-11-18T09:57:21;100480.23;;;20.49;36.29
72024;BME280;59889;50.700;5.440;2023-11-18T09:59:45;100478.23;;;20.25;36.30
72024;BME280;59889;50.700;5.440;2023-11-18T10:02:07;100473.87;;;20.43;36.36
72024;BME280;59889;50.700;5.440;2023-11-18T10:04:33;100469.10;;;20.42;36.12
72024;BME280;59889;50.700;5.440;2023-11-18T10:06:59;100459.53;;;20.34;36.22
72024;BME280;59889;50.700;5.440;2023-11-18T10:09:23;100453.94;;;20.15;36.38
72024;BME280;59889;50.700;5.440;2023-11-18T10:11:48;100452.24;;;20.40;36.44
72024;BME280;59889;50.700;5.440;2023-11-18T10:14:14;100443.61;;;20.33;36.23
72024;BME280;59889;50.700;5.440;2023-11-18T10:16:38;100439.84;;;20.10;36.53
72024;BME280;59889;50.700;5.440;2023-11-18T10:19:04;100438.72;;;20.16;36.49
72024;BME280;59889;50.700;5.440;2023-11-18T10:21:34;100443.64;;;20.38;36.49
72024;BME280;59889;50.700;5.440;2023-11-18T10:23:59;100447.20;;;20.50;36.65
72024;BME280;59889;50.700;5.440;2023-11-18T10:26:24;100434.16;;;20.13;36.50
72024;BME280;59889;50.700;5.440;2023-11-18T10:28:45;100433.87;;;20.42;36.45
72024;BME280;59889;50.700;5.440;2023-11-18T10:31:18;100432.56;;;20.35;36.24
72024;BME280;59889;50.700;5.440;2023-11-18T10:33:37;100431.40;;;20.10;36.55
72024;BME280;59889;50.700;5.440;2023-11-18T10:36:02;100422.19;;;20.14;36.53
72024;BME280;59889;50.700;5.440;2023-11-18T10:38:27;100413.99;;;20.59;36.57
72024;BME280;59889;50.700;5.440;2023-11-18T10:40:53;100419.04;;;20.04;36.66
72024;BME280;59889;50.700;5.440;2023-11-18T10:43:17;100412.84;;;20.37;36.53
72024;BME280;59889;50.700;5.440;2023-11-18T10:45:43;100399.02;;;20.49;36.39
72024;BME280;59889;50.700;5.440;2023-11-18T10:48:08;100386.97;;;20.24;36.40
72024;BME280;59889;50.700;5.440;2023-11-18T10:50:33;100377.26;;;20.12;36.55
72024;BME280;59889;50.700;5.440;2023-11-18T10:52:58;100372.57;;;20.24;36.37
72024;BME280;59889;50.700;5.440;2023-11-18T10:55:35;100370.86;;;20.41;36.53
72024;BME280;59889;50.700;5.440;2023-11-18T10:57:49;100363.56;;;20.43;36.51
72024;BME280;59889;50.700;5.440;2023-11-18T11:00:14;100355.37;;;20.18;36.57
72024;BME280;59889;50.700;5.440;2023-11-18T11:02:40;100351.12;;;20.17;36.63
72024;BME280;59889;50.700;5.440;2023-11-18T11:05:05;100338.66;;;20.21;36.75
72024;BME280;59889;50.700;5.440;2023-11-18T11:07:32;100333.25;;;20.27;36.86
72024;BME280;59889;50.700;5.440;2023-11-18T11:09:55;100324.64;;;20.50;36.79
72024;BME280;59889;50.700;5.440;2023-11-18T11:12:21;100310.05;;;20.34;36.59
72024;BME280;59889;50.700;5.440;2023-11-18T11:14:53;100306.27;;;20.21;36.63
72024;BME280;59889;50.700;5.440;2023-11-18T11:17:13;100295.09;;;20.43;37.12
72024;BME280;59889;50.700;5.440;2023-11-18T11:19:42;100293.54;;;20.22;37.20
72024;BME280;59889;50.700;5.440;2023-11-18T11:22:05;100280.75;;;20.56;37.07
72024;BME280;59889;50.700;5.440;2023-11-18T11:24:37;100269.63;;;20.62;37.27
72024;BME280;59889;50.700;5.440;2023-11-18T11:26:59;100265.68;;;20.46;37.17
72024;BME280;59889;50.700;5.440;2023-11-18T11:29:25;100256.17;;;20.37;37.25
72024;BME280;59889;50.700;5.440;2023-11-18T11:31:43;100250.81;;;20.30;37.31
72024;BME280;59889;50.700;5.440;2023-11-18T11:34:14;100255.27;;;20.08;37.29
72024;BME280;59889;50.700;5.440;2023-11-18T11:36:37;100245.64;;;20.10;37.27
72024;BME280;59889;50.700;5.440;2023-11-18T11:38:59;100240.79;;;20.35;37.21
72024;BME280;59889;50.700;5.440;2023-11-18T11:41:23;100241.47;;;20.12;37.17
72024;BME280;59889;50.700;5.440;2023-11-18T11:43:48;100243.48;;;20.12;37.18
72024;BME280;59889;50.700;5.440;2023-11-18T11:46:13;100244.50;;;20.07;37.23
72024;BME280;59889;50.700;5.440;2023-11-18T11:48:38;100239.92;;;20.36;37.15
72024;BME280;59889;50.700;5.440;2023-11-18T11:51:09;100242.78;;;20.38;37.13
72024;BME280;59889;50.700;5.440;2023-11-18T11:53:35;100243.09;;;20.26;37.25
72024;BME280;59889;50.700;5.440;2023-11-18T11:55:54;100249.44;;;20.55;37.24
72024;BME280;59889;50.700;5.440;2023-11-18T11:58:26;100251.29;;;20.74;37.01
72024;BME280;59889;50.700;5.440;2023-11-18T12:00:45;100242.30;;;20.28;37.22
72024;BME280;59889;50.700;5.440;2023-11-18T12:03:12;100229.54;;;20.37;37.12
72024;BME280;59889;50.700;5.440;2023-11-18T12:05:35;100219.57;;;20.23;37.00
72024;BME280;59889;50.700;5.440;2023-11-18T12:08:00;100219.85;;;20.28;36.95
72024;BME280;59889;50.700;5.440;2023-11-18T12:10:27;100214.78;;;20.13;37.19
72024;BME280;59889;50.700;5.440;2023-11-18T12:15:15;100204.86;;;20.05;37.26
72024;BME280;59889;50.700;5.440;2023-11-18T12:29:46;100162.51;;;20.08;37.21
72024;BME280;59889;50.700;5.440;2023-11-18T12:34:50;100137.19;;;20.16;37.13
72024;BME280;59889;50.700;5.440;2023-11-18T12:37:18;100117.63;;;20.06;37.24
72024;BME280;59889;50.700;5.440;2023-11-18T12:39:47;100120.15;;;20.54;37.23
72024;BME280;59889;50.700;5.440;2023-11-18T12:42:02;100106.43;;;20.34;37.27
72024;BME280;59889;50.700;5.440;2023-11-18T12:44:28;100109.43;;;20.38;37.22
72024;BME280;59889;50.700;5.440;2023-11-18T12:46:49;100103.09;;;20.10;37.29
72024;BME280;59889;50.700;5.440;2023-11-18T12:49:10;100095.10;;;20.08;37.41
72024;BME280;59889;50.700;5.440;2023-11-18T12:51:35;100094.82;;;20.09;37.34
72024;BME280;59889;50.700;5.440;2023-11-18T12:53:59;100075.60;;;20.35;37.29
72024;BME280;59889;50.700;5.440;2023-11-18T12:56:25;100056.81;;;20.09;37.46